Accueil
METAR-TAF:

METAR-TAF

Aéroports :

Calvi, France

Aéroport de Calvi-Sainte-Catherine

latitude: 42-32N, longitude: 008-48E, altitude: 64 m

Observation

Le bulletin a été fait il y a 31 minutes, à 03:00 UTC
Vent 3 kt de sud/sud-ouest
Température 13°C
Humidité 58%
Pression 1015 hPa
Visibilité 10 km ou plus
pas de nuages en-dessous de 1500 mètres et pas de cumulonimbus.

METAR: LFKC 190300Z AUTO 20003KT CAVOK 13/05 Q1015 NOSIG

Heure: 05:31 (03:31 UTC)

Prévision

Le bulletin a été fait il y a 1 heure et 31 minutes, à 02:00 UTC
Prévision valable du 19 à 03 UTC au 20 à 03 UTC
Vent 3 kt de sud
Visibilité 10 km ou plus
pas de nuages en-dessous de 1500 mètres et pas de cumulonimbus.
Evoluant progressivement
du 19 à 07 UTC au 19 à 10 UTC
Vent 6 kt de nord/nord-ouest
Evoluant progressivement
du 19 à 17 UTC au 19 à 20 UTC
Vent 4 kt de sud

TAF: LFKC 190200Z 1903/2003 19003KT CAVOK BECMG 1907/1910 34006KT BECMG 1917/1920 18004KT TX24/1912Z TN11/1903Z

Observations et prévisions météorologiques de plus de 4000 aéroports (messages METAR et TAF).

Les stations disponibles sont représentées par des disques jaunes et rouges sur la carte.

Passer la souris dessus pour voir le nom de la station.

Cliquer dessus pour voir les observations et prévisions météorologiques.

Pour changer de carte: cliquez sur les boutons verts avec une croix noire pour zoomer, sur le bouton vert avec un tiret pour effectuer un zoom arrière, ou sur les flèches vertes pour les cartes adjacentes.


METAR-TAF: